sensor_id;sensor_type;location;lat;lon;timestamp;P1;durP1;ratioP1;P2;durP2;ratioP2
59950;SDS011;45812;53.540;9.774;2024-01-15T00:00:32;11.65;;;1.45;;
59950;SDS011;45812;53.540;9.774;2024-01-15T00:02:57;6.57;;;2.03;;
59950;SDS011;45812;53.540;9.774;2024-01-15T00:05:23;5.28;;;1.80;;
59950;SDS011;45812;53.540;9.774;2024-01-15T00:07:48;5.05;;;1.23;;
59950;SDS011;45812;53.540;9.774;2024-01-15T00:10:13;1.35;;;0.98;;
59950;SDS011;45812;53.540;9.774;2024-01-15T00:12:38;10.30;;;2.15;;
59950;SDS011;45812;53.540;9.774;2024-01-15T00:15:04;3.65;;;1.48;;
59950;SDS011;45812;53.540;9.774;2024-01-15T00:17:30;9.45;;;2.20;;
59950;SDS011;45812;53.540;9.774;2024-01-15T00:19:55;13.10;;;2.55;;
59950;SDS011;45812;53.540;9.774;2024-01-15T00:22:20;8.40;;;1.67;;
59950;SDS011;45812;53.540;9.774;2024-01-15T00:24:45;6.50;;;1.13;;
59950;SDS011;45812;53.540;9.774;2024-01-15T00:27:11;12.02;;;1.58;;
59950;SDS011;45812;53.540;9.774;2024-01-15T00:29:36;5.35;;;1.13;;
59950;SDS011;45812;53.540;9.774;2024-01-15T00:32:01;8.48;;;1.70;;
59950;SDS011;45812;53.540;9.774;2024-01-15T00:34:26;6.57;;;1.40;;
59950;SDS011;45812;53.540;9.774;2024-01-15T00:36:52;7.22;;;1.58;;
59950;SDS011;45812;53.540;9.774;2024-01-15T00:39:17;6.05;;;1.48;;
59950;SDS011;45812;53.540;9.774;2024-01-15T00:41:42;20.77;;;1.92;;
59950;SDS011;45812;53.540;9.774;2024-01-15T00:44:07;4.55;;;1.63;;
59950;SDS011;45812;53.540;9.774;2024-01-15T00:46:33;6.00;;;1.20;;
59950;SDS011;45812;53.540;9.774;2024-01-15T00:48:58;2.92;;;1.67;;
59950;SDS011;45812;53.540;9.774;2024-01-15T00:51:23;5.25;;;1.45;;
59950;SDS011;45812;53.540;9.774;2024-01-15T00:53:48;7.88;;;1.58;;
59950;SDS011;45812;53.540;9.774;2024-01-15T00:56:13;4.88;;;1.52;;
59950;SDS011;45812;53.540;9.774;2024-01-15T00:58:39;7.75;;;1.08;;
59950;SDS011;45812;53.540;9.774;2024-01-15T01:01:04;8.68;;;1.05;;
59950;SDS011;45812;53.540;9.774;2024-01-15T01:03:29;6.63;;;1.10;;
59950;SDS011;45812;53.540;9.774;2024-01-15T01:05:54;8.23;;;1.67;;
59950;SDS011;45812;53.540;9.774;2024-01-15T01:08:20;8.63;;;1.83;;
59950;SDS011;45812;53.540;9.774;2024-01-15T01:10:45;7.93;;;1.27;;
59950;SDS011;45812;53.540;9.774;2024-01-15T01:13:10;10.38;;;2.03;;
59950;SDS011;45812;53.540;9.774;2024-01-15T01:15:35;7.90;;;1.83;;
59950;SDS011;45812;53.540;9.774;2024-01-15T01:18:01;5.57;;;1.17;;
59950;SDS011;45812;53.540;9.774;2024-01-15T01:20:26;4.05;;;1.00;;
59950;SDS011;45812;53.540;9.774;2024-01-15T01:22:51;14.90;;;2.08;;
59950;SDS011;45812;53.540;9.774;2024-01-15T01:25:17;12.52;;;2.28;;
59950;SDS011;45812;53.540;9.774;2024-01-15T01:27:42;3.20;;;1.17;;
59950;SDS011;45812;53.540;9.774;2024-01-15T01:30:07;8.85;;;1.75;;
59950;SDS011;45812;53.540;9.774;2024-01-15T01:32:33;3.97;;;1.65;;
59950;SDS011;45812;53.540;9.774;2024-01-15T01:34:58;5.78;;;0.98;;
59950;SDS011;45812;53.540;9.774;2024-01-15T01:37:24;10.25;;;1.75;;
59950;SDS011;45812;53.540;9.774;2024-01-15T01:39:49;11.27;;;1.25;;
59950;SDS011;45812;53.540;9.774;2024-01-15T01:42:15;15.70;;;2.47;;
59950;SDS011;45812;53.540;9.774;2024-01-15T01:44:40;8.23;;;2.92;;
59950;SDS011;45812;53.540;9.774;2024-01-15T01:47:05;10.10;;;1.52;;
59950;SDS011;45812;53.540;9.774;2024-01-15T01:49:31;13.93;;;1.38;;
59950;SDS011;45812;53.540;9.774;2024-01-15T01:51:58;7.35;;;1.38;;
59950;SDS011;45812;53.540;9.774;2024-01-15T01:54:25;4.05;;;0.93;;
59950;SDS011;45812;53.540;9.774;2024-01-15T01:56:53;7.38;;;1.45;;
59950;SDS011;45812;53.540;9.774;2024-01-15T01:59:19;11.95;;;2.03;;
59950;SDS011;45812;53.540;9.774;2024-01-15T02:01:45;5.28;;;2.60;;
59950;SDS011;45812;53.540;9.774;2024-01-15T02:04:11;15.00;;;1.50;;
59950;SDS011;45812;53.540;9.774;2024-01-15T02:06:37;6.43;;;1.63;;
59950;SDS011;45812;53.540;9.774;2024-01-15T02:09:03;8.70;;;1.75;;
59950;SDS011;45812;53.540;9.774;2024-01-15T02:11:30;3.45;;;1.63;;
59950;SDS011;45812;53.540;9.774;2024-01-15T02:13:56;3.72;;;1.13;;
59950;SDS011;45812;53.540;9.774;2024-01-15T02:16:21;2.55;;;1.27;;
59950;SDS011;45812;53.540;9.774;2024-01-15T02:18:46;11.80;;;2.15;;
59950;SDS011;45812;53.540;9.774;2024-01-15T02:21:12;2.50;;;1.30;;
59950;SDS011;45812;53.540;9.774;2024-01-15T02:23:38;6.88;;;1.65;;
59950;SDS011;45812;53.540;9.774;2024-01-15T02:26:04;9.63;;;1.25;;
59950;SDS011;45812;53.540;9.774;2024-01-15T02:28:29;5.78;;;0.80;;
59950;SDS011;45812;53.540;9.774;2024-01-15T02:30:55;6.60;;;1.33;;
59950;SDS011;45812;53.540;9.774;2024-01-15T02:33:20;9.13;;;1.20;;
59950;SDS011;45812;53.540;9.774;2024-01-15T02:35:45;6.45;;;1.40;;
59950;SDS011;45812;53.540;9.774;2024-01-15T02:38:15;4.65;;;1.75;;
59950;SDS011;45812;53.540;9.774;2024-01-15T02:40:41;4.88;;;1.45;;
59950;SDS011;45812;53.540;9.774;2024-01-15T02:43:06;7.97;;;1.95;;
59950;SDS011;45812;53.540;9.774;2024-01-15T02:45:31;9.18;;;1.65;;
59950;SDS011;45812;53.540;9.774;2024-01-15T02:47:57;2.97;;;1.48;;
59950;SDS011;45812;53.540;9.774;2024-01-15T02:50:22;5.28;;;1.60;;
59950;SDS011;45812;53.540;9.774;2024-01-15T02:52:47;6.13;;;1.35;;
59950;SDS011;45812;53.540;9.774;2024-01-15T02:55:12;7.05;;;1.63;;
59950;SDS011;45812;53.540;9.774;2024-01-15T02:57:38;6.75;;;1.08;;
59950;SDS011;45812;53.540;9.774;2024-01-15T03:00:03;6.10;;;1.10;;
59950;SDS011;45812;53.540;9.774;2024-01-15T03:02:29;5.10;;;1.67;;
59950;SDS011;45812;53.540;9.774;2024-01-15T03:04:56;2.08;;;1.17;;
59950;SDS011;45812;53.540;9.774;2024-01-15T03:07:22;7.10;;;1.58;;
59950;SDS011;45812;53.540;9.774;2024-01-15T03:09:47;8.38;;;1.45;;
59950;SDS011;45812;53.540;9.774;2024-01-15T03:12:12;3.50;;;1.23;;
59950;SDS011;45812;53.540;9.774;2024-01-15T03:14:37;5.55;;;1.40;;
59950;SDS011;45812;53.540;9.774;2024-01-15T03:17:03;8.10;;;1.58;;
59950;SDS011;45812;53.540;9.774;2024-01-15T03:19:28;8.70;;;1.80;;
59950;SDS011;45812;53.540;9.774;2024-01-15T03:21:54;6.03;;;1.60;;
59950;SDS011;45812;53.540;9.774;2024-01-15T03:24:20;7.15;;;2.05;;
59950;SDS011;45812;53.540;9.774;2024-01-15T03:26:45;11.68;;;1.73;;
59950;SDS011;45812;53.540;9.774;2024-01-15T03:29:10;16.77;;;2.28;;
59950;SDS011;45812;53.540;9.774;2024-01-15T03:31:35;10.15;;;2.42;;
59950;SDS011;45812;53.540;9.774;2024-01-15T03:34:01;15.02;;;2.33;;
59950;SDS011;45812;53.540;9.774;2024-01-15T03:36:26;7.68;;;1.38;;
59950;SDS011;45812;53.540;9.774;2024-01-15T03:38:51;11.15;;;2.17;;
59950;SDS011;45812;53.540;9.774;2024-01-15T03:41:16;5.95;;;2.28;;
59950;SDS011;45812;53.540;9.774;2024-01-15T03:43:42;12.40;;;2.70;;
59950;SDS011;45812;53.540;9.774;2024-01-15T03:46:07;10.00;;;2.40;;
59950;SDS011;45812;53.540;9.774;2024-01-15T03:48:32;14.23;;;2.55;;
59950;SDS011;45812;53.540;9.774;2024-01-15T03:50:57;10.75;;;2.58;;
59950;SDS011;45812;53.540;9.774;2024-01-15T03:53:23;7.90;;;2.03;;
59950;SDS011;45812;53.540;9.774;2024-01-15T03:55:48;13.80;;;1.77;;
59950;SDS011;45812;53.540;9.774;2024-01-15T03:58:14;7.68;;;0.95;;
59950;SDS011;45812;53.540;9.774;2024-01-15T04:00:42;19.55;;;2.65;;
59950;SDS011;45812;53.540;9.774;2024-01-15T04:03:07;6.47;;;1.38;;
59950;SDS011;45812;53.540;9.774;2024-01-15T04:05:33;14.18;;;2.33;;
59950;SDS011;45812;53.540;9.774;2024-01-15T04:07:58;11.77;;;1.80;;
59950;SDS011;45812;53.540;9.774;2024-01-15T04:10:23;8.48;;;2.35;;
59950;SDS011;45812;53.540;9.774;2024-01-15T04:12:48;10.90;;;2.45;;
59950;SDS011;45812;53.540;9.774;2024-01-15T04:15:14;11.70;;;2.50;;
59950;SDS011;45812;53.540;9.774;2024-01-15T04:17:40;13.57;;;2.25;;
59950;SDS011;45812;53.540;9.774;2024-01-15T04:20:05;8.30;;;2.28;;
59950;SDS011;45812;53.540;9.774;2024-01-15T04:22:31;22.92;;;2.55;;
59950;SDS011;45812;53.540;9.774;2024-01-15T04:24:57;11.05;;;2.05;;
59950;SDS011;45812;53.540;9.774;2024-01-15T04:27:22;15.00;;;2.92;;
59950;SDS011;45812;53.540;9.774;2024-01-15T04:29:47;11.30;;;1.92;;
59950;SDS011;45812;53.540;9.774;2024-01-15T04:32:12;12.13;;;2.75;;
59950;SDS011;45812;53.540;9.774;2024-01-15T04:34:38;15.30;;;2.92;;
59950;SDS011;45812;53.540;9.774;2024-01-15T04:37:03;12.70;;;2.22;;
59950;SDS011;45812;53.540;9.774;2024-01-15T04:39:29;12.50;;;2.65;;
59950;SDS011;45812;53.540;9.774;2024-01-15T04:41:54;16.08;;;2.88;;
59950;SDS011;45812;53.540;9.774;2024-01-15T04:44:19;9.25;;;2.60;;
59950;SDS011;45812;53.540;9.774;2024-01-15T04:46:44;13.30;;;2.40;;
59950;SDS011;45812;53.540;9.774;2024-01-15T04:49:10;16.05;;;2.90;;
59950;SDS011;45812;53.540;9.774;2024-01-15T04:51:36;13.70;;;2.08;;
59950;SDS011;45812;53.540;9.774;2024-01-15T04:54:01;7.57;;;1.55;;
59950;SDS011;45812;53.540;9.774;2024-01-15T04:56:26;7.55;;;1.45;;
59950;SDS011;45812;53.540;9.774;2024-01-15T04:58:52;14.35;;;2.78;;
59950;SDS011;45812;53.540;9.774;2024-01-15T05:01:17;9.40;;;1.65;;
59950;SDS011;45812;53.540;9.774;2024-01-15T05:03:42;7.20;;;1.40;;
59950;SDS011;45812;53.540;9.774;2024-01-15T05:06:08;17.40;;;2.63;;
59950;SDS011;45812;53.540;9.774;2024-01-15T05:08:33;15.27;;;1.90;;
59950;SDS011;45812;53.540;9.774;2024-01-15T05:10:58;13.25;;;1.77;;
59950;SDS011;45812;53.540;9.774;2024-01-15T05:13:24;10.82;;;1.85;;
59950;SDS011;45812;53.540;9.774;2024-01-15T05:15:49;18.35;;;3.25;;
59950;SDS011;45812;53.540;9.774;2024-01-15T05:18:14;11.45;;;2.08;;
59950;SDS011;45812;53.540;9.774;2024-01-15T05:20:40;8.55;;;1.98;;
59950;SDS011;45812;53.540;9.774;2024-01-15T05:23:05;11.50;;;3.45;;
59950;SDS011;45812;53.540;9.774;2024-01-15T05:25:30;11.95;;;2.30;;
59950;SDS011;45812;53.540;9.774;2024-01-15T05:27:55;6.60;;;1.50;;
59950;SDS011;45812;53.540;9.774;2024-01-15T05:30:21;17.73;;;2.38;;
59950;SDS011;45812;53.540;9.774;2024-01-15T05:32:46;9.10;;;2.38;;
59950;SDS011;45812;53.540;9.774;2024-01-15T05:35:11;4.70;;;0.95;;
59950;SDS011;45812;53.540;9.774;2024-01-15T05:37:36;6.97;;;2.45;;
59950;SDS011;45812;53.540;9.774;2024-01-15T05:40:02;13.23;;;2.85;;
59950;SDS011;45812;53.540;9.774;2024-01-15T05:42:29;11.05;;;2.47;;
59950;SDS011;45812;53.540;9.774;2024-01-15T05:44:55;14.00;;;2.35;;
59950;SDS011;45812;53.540;9.774;2024-01-15T05:47:20;8.68;;;2.20;;
59950;SDS011;45812;53.540;9.774;2024-01-15T05:49:45;9.32;;;2.50;;
59950;SDS011;45812;53.540;9.774;2024-01-15T05:52:11;10.00;;;2.50;;
59950;SDS011;45812;53.540;9.774;2024-01-15T05:54:36;10.63;;;1.80;;
59950;SDS011;45812;53.540;9.774;2024-01-15T05:57:01;13.50;;;2.08;;
59950;SDS011;45812;53.540;9.774;2024-01-15T05:59:27;14.10;;;2.85;;
59950;SDS011;45812;53.540;9.774;2024-01-15T06:01:53;20.58;;;2.47;;
59950;SDS011;45812;53.540;9.774;2024-01-15T06:04:18;10.82;;;2.70;;
59950;SDS011;45812;53.540;9.774;2024-01-15T06:06:43;8.82;;;2.55;;
59950;SDS011;45812;53.540;9.774;2024-01-15T06:09:09;9.30;;;1.88;;
59950;SDS011;45812;53.540;9.774;2024-01-15T06:11:34;16.77;;;2.28;;
59950;SDS011;45812;53.540;9.774;2024-01-15T06:13:59;11.40;;;2.35;;
59950;SDS011;45812;53.540;9.774;2024-01-15T06:16:28;5.80;;;2.03;;
59950;SDS011;45812;53.540;9.774;2024-01-15T06:18:54;12.13;;;2.75;;
59950;SDS011;45812;53.540;9.774;2024-01-15T06:21:19;17.63;;;3.10;;
59950;SDS011;45812;53.540;9.774;2024-01-15T06:23:44;9.60;;;1.88;;
59950;SDS011;45812;53.540;9.774;2024-01-15T06:26:13;10.60;;;2.00;;
59950;SDS011;45812;53.540;9.774;2024-01-15T06:28:38;10.75;;;2.20;;
59950;SDS011;45812;53.540;9.774;2024-01-15T06:31:03;12.63;;;2.33;;
59950;SDS011;45812;53.540;9.774;2024-01-15T06:33:29;16.42;;;2.35;;
59950;SDS011;45812;53.540;9.774;2024-01-15T06:35:54;12.63;;;3.25;;
59950;SDS011;45812;53.540;9.774;2024-01-15T06:38:19;7.90;;;1.75;;
59950;SDS011;45812;53.540;9.774;2024-01-15T06:40:45;11.68;;;2.20;;
59950;SDS011;45812;53.540;9.774;2024-01-15T06:43:14;9.07;;;1.90;;
59950;SDS011;45812;53.540;9.774;2024-01-15T06:45:40;12.60;;;1.98;;
59950;SDS011;45812;53.540;9.774;2024-01-15T06:48:06;7.82;;;1.92;;
59950;SDS011;45812;53.540;9.774;2024-01-15T06:50:32;15.98;;;2.83;;
59950;SDS011;45812;53.540;9.774;2024-01-15T06:52:57;10.95;;;1.50;;
59950;SDS011;45812;53.540;9.774;2024-01-15T06:55:23;12.38;;;2.35;;
59950;SDS011;45812;53.540;9.774;2024-01-15T06:57:48;8.70;;;2.38;;
59950;SDS011;45812;53.540;9.774;2024-01-15T07:00:13;10.07;;;2.28;;
59950;SDS011;45812;53.540;9.774;2024-01-15T07:02:39;10.60;;;2.00;;
59950;SDS011;45812;53.540;9.774;2024-01-15T07:05:04;6.78;;;1.55;;
59950;SDS011;45812;53.540;9.774;2024-01-15T07:07:32;18.98;;;1.70;;
59950;SDS011;45812;53.540;9.774;2024-01-15T07:09:58;18.00;;;1.73;;
59950;SDS011;45812;53.540;9.774;2024-01-15T07:12:23;9.65;;;2.10;;
59950;SDS011;45812;53.540;9.774;2024-01-15T07:14:48;4.53;;;1.17;;
59950;SDS011;45812;53.540;9.774;2024-01-15T07:17:14;10.45;;;1.88;;
59950;SDS011;45812;53.540;9.774;2024-01-15T07:19:39;6.05;;;1.98;;
59950;SDS011;45812;53.540;9.774;2024-01-15T07:22:04;12.13;;;2.13;;
59950;SDS011;45812;53.540;9.774;2024-01-15T07:24:29;1.63;;;1.15;;
59950;SDS011;45812;53.540;9.774;2024-01-15T07:26:55;6.25;;;1.25;;
59950;SDS011;45812;53.540;9.774;2024-01-15T07:29:20;7.38;;;2.67;;
59950;SDS011;45812;53.540;9.774;2024-01-15T07:31:51;8.70;;;1.48;;
59950;SDS011;45812;53.540;9.774;2024-01-15T07:34:17;6.75;;;1.55;;
59950;SDS011;45812;53.540;9.774;2024-01-15T07:36:46;7.75;;;1.70;;
59950;SDS011;45812;53.540;9.774;2024-01-15T07:39:11;8.48;;;1.83;;
59950;SDS011;45812;53.540;9.774;2024-01-15T07:41:37;10.35;;;1.20;;
59950;SDS011;45812;53.540;9.774;2024-01-15T07:44:02;6.05;;;1.73;;
59950;SDS011;45812;53.540;9.774;2024-01-15T07:46:27;5.03;;;1.15;;
59950;SDS011;45812;53.540;9.774;2024-01-15T07:48:53;8.98;;;1.40;;
59950;SDS011;45812;53.540;9.774;2024-01-15T07:51:21;9.60;;;2.22;;
59950;SDS011;45812;53.540;9.774;2024-01-15T07:53:47;8.93;;;1.38;;
59950;SDS011;45812;53.540;9.774;2024-01-15T07:56:13;5.97;;;1.63;;
59950;SDS011;45812;53.540;9.774;2024-01-15T07:58:38;11.57;;;2.00;;
59950;SDS011;45812;53.540;9.774;2024-01-15T08:01:03;19.95;;;1.92;;
59950;SDS011;45812;53.540;9.774;2024-01-15T08:03:28;5.20;;;1.13;;
59950;SDS011;45812;53.540;9.774;2024-01-15T08:05:54;15.13;;;2.45;;
59950;SDS011;45812;53.540;9.774;2024-01-15T08:08:20;6.07;;;1.42;;
59950;SDS011;45812;53.540;9.774;2024-01-15T08:10:49;11.02;;;1.73;;
59950;SDS011;45812;53.540;9.774;2024-01-15T08:13:14;5.85;;;1.58;;
59950;SDS011;45812;53.540;9.774;2024-01-15T08:15:40;5.93;;;2.53;;
59950;SDS011;45812;53.540;9.774;2024-01-15T08:18:06;11.15;;;1.73;;
59950;SDS011;45812;53.540;9.774;2024-01-15T08:20:31;3.85;;;1.02;;
59950;SDS011;45812;53.540;9.774;2024-01-15T08:22:56;3.97;;;1.17;;
59950;SDS011;45812;53.540;9.774;2024-01-15T08:25:22;5.43;;;1.40;;
59950;SDS011;45812;53.540;9.774;2024-01-15T08:27:47;5.60;;;1.25;;
59950;SDS011;45812;53.540;9.774;2024-01-15T08:30:12;8.85;;;1.10;;
59950;SDS011;45812;53.540;9.774;2024-01-15T08:32:38;4.88;;;1.33;;
59950;SDS011;45812;53.540;9.774;2024-01-15T08:35:07;9.60;;;1.13;;
59950;SDS011;45812;53.540;9.774;2024-01-15T08:37:32;4.80;;;1.17;;
59950;SDS011;45812;53.540;9.774;2024-01-15T08:39:58;2.63;;;1.10;;
59950;SDS011;45812;53.540;9.774;2024-01-15T08:42:24;13.25;;;1.85;;
59950;SDS011;45812;53.540;9.774;2024-01-15T08:44:50;5.60;;;1.42;;
59950;SDS011;45812;53.540;9.774;2024-01-15T08:47:15;4.47;;;1.40;;
59950;SDS011;45812;53.540;9.774;2024-01-15T08:49:41;9.88;;;2.05;;
59950;SDS011;45812;53.540;9.774;2024-01-15T08:52:08;5.85;;;1.60;;
59950;SDS011;45812;53.540;9.774;2024-01-15T08:54:33;10.77;;;1.95;;
59950;SDS011;45812;53.540;9.774;2024-01-15T08:56:58;7.78;;;1.77;;
59950;SDS011;45812;53.540;9.774;2024-01-15T08:59:24;6.10;;;2.08;;
59950;SDS011;45812;53.540;9.774;2024-01-15T09:01:50;4.85;;;1.50;;
59950;SDS011;45812;53.540;9.774;2024-01-15T09:04:21;8.18;;;1.58;;
59950;SDS011;45812;53.540;9.774;2024-01-15T09:06:46;9.15;;;1.77;;
59950;SDS011;45812;53.540;9.774;2024-01-15T09:09:12;13.35;;;2.95;;
59950;SDS011;45812;53.540;9.774;2024-01-15T09:11:38;3.30;;;1.27;;
59950;SDS011;45812;53.540;9.774;2024-01-15T09:14:04;8.30;;;1.80;;
59950;SDS011;45812;53.540;9.774;2024-01-15T09:16:29;4.28;;;1.55;;
59950;SDS011;45812;53.540;9.774;2024-01-15T09:18:54;8.88;;;1.90;;
59950;SDS011;45812;53.540;9.774;2024-01-15T09:21:22;6.75;;;2.15;;
59950;SDS011;45812;53.540;9.774;2024-01-15T09:23:47;4.32;;;1.77;;
59950;SDS011;45812;53.540;9.774;2024-01-15T09:26:12;6.05;;;1.17;;
59950;SDS011;45812;53.540;9.774;2024-01-15T09:28:38;5.00;;;1.50;;
59950;SDS011;45812;53.540;9.774;2024-01-15T09:31:03;2.05;;;0.70;;
59950;SDS011;45812;53.540;9.774;2024-01-15T09:33:28;6.88;;;1.30;;
59950;SDS011;45812;53.540;9.774;2024-01-15T09:35:53;12.82;;;1.70;;
59950;SDS011;45812;53.540;9.774;2024-01-15T09:38:19;6.18;;;1.15;;
59950;SDS011;45812;53.540;9.774;2024-01-15T09:40:45;2.05;;;1.13;;
59950;SDS011;45812;53.540;9.774;2024-01-15T09:43:11;6.45;;;1.42;;
59950;SDS011;45812;53.540;9.774;2024-01-15T09:45:37;2.60;;;1.02;;
59950;SDS011;45812;53.540;9.774;2024-01-15T09:48:04;3.97;;;1.30;;
59950;SDS011;45812;53.540;9.774;2024-01-15T09:50:29;5.95;;;1.50;;
59950;SDS011;45812;53.540;9.774;2024-01-15T09:52:55;5.32;;;1.05;;
59950;SDS011;45812;53.540;9.774;2024-01-15T09:55:22;6.30;;;1.40;;
59950;SDS011;45812;53.540;9.774;2024-01-15T09:57:47;7.00;;;1.90;;
59950;SDS011;45812;53.540;9.774;2024-01-15T10:00:13;6.53;;;1.10;;
59950;SDS011;45812;53.540;9.774;2024-01-15T10:02:42;4.05;;;0.85;;
59950;SDS011;45812;53.540;9.774;2024-01-15T10:05:07;5.78;;;0.70;;
59950;SDS011;45812;53.540;9.774;2024-01-15T10:07:33;2.75;;;0.60;;
59950;SDS011;45812;53.540;9.774;2024-01-15T10:10:00;8.30;;;1.23;;
59950;SDS011;45812;53.540;9.774;2024-01-15T10:12:26;7.63;;;0.80;;
59950;SDS011;45812;53.540;9.774;2024-01-15T10:14:52;0.40;;;0.40;;
59950;SDS011;45812;53.540;9.774;2024-01-15T10:17:17;0.93;;;0.65;;
59950;SDS011;45812;53.540;9.774;2024-01-15T10:19:43;6.20;;;1.33;;
59950;SDS011;45812;53.540;9.774;2024-01-15T10:22:13;3.03;;;0.80;;
59950;SDS011;45812;53.540;9.774;2024-01-15T10:24:40;3.58;;;0.57;;
59950;SDS011;45812;53.540;9.774;2024-01-15T10:27:06;10.77;;;2.08;;
59950;SDS011;45812;53.540;9.774;2024-01-15T10:29:35;5.97;;;1.33;;
59950;SDS011;45812;53.540;9.774;2024-01-15T10:32:01;1.92;;;1.30;;
59950;SDS011;45812;53.540;9.774;2024-01-15T10:34:27;2.38;;;0.52;;
59950;SDS011;45812;53.540;9.774;2024-01-15T10:36:53;5.20;;;0.82;;
59950;SDS011;45812;53.540;9.774;2024-01-15T10:39:23;0.68;;;0.38;;
59950;SDS011;45812;53.540;9.774;2024-01-15T10:41:49;2.17;;;0.65;;
59950;SDS011;45812;53.540;9.774;2024-01-15T10:44:15;2.85;;;0.70;;
59950;SDS011;45812;53.540;9.774;2024-01-15T10:46:41;0.22;;;0.22;;
59950;SDS011;45812;53.540;9.774;2024-01-15T10:49:08;0.98;;;0.30;;
59950;SDS011;45812;53.540;9.774;2024-01-15T10:51:35;2.10;;;0.98;;
59950;SDS011;45812;53.540;9.774;2024-01-15T10:54:01;2.03;;;0.90;;
59950;SDS011;45812;53.540;9.774;2024-01-15T10:56:27;1.23;;;0.68;;
59950;SDS011;45812;53.540;9.774;2024-01-15T10:58:53;1.50;;;0.25;;
59950;SDS011;45812;53.540;9.774;2024-01-15T11:01:19;1.40;;;0.20;;
59950;SDS011;45812;53.540;9.774;2024-01-15T11:03:45;3.95;;;0.77;;
59950;SDS011;45812;53.540;9.774;2024-01-15T11:06:18;0.55;;;0.40;;
59950;SDS011;45812;53.540;9.774;2024-01-15T11:08:44;1.85;;;0.65;;
59950;SDS011;45812;53.540;9.774;2024-01-15T11:11:13;0.15;;;0.15;;
59950;SDS011;45812;53.540;9.774;2024-01-15T11:16:07;2.20;;;0.50;;
59950;SDS011;45812;53.540;9.774;2024-01-15T11:18:37;4.20;;;0.90;;
59950;SDS011;45812;53.540;9.774;2024-01-15T11:23:47;1.90;;;0.40;;
59950;SDS011;45812;53.540;9.774;2024-01-15T11:26:29;0.60;;;0.60;;
59950;SDS011;45812;53.540;9.774;2024-01-15T11:29:04;2.20;;;0.93;;
59950;SDS011;45812;53.540;9.774;2024-01-15T11:31:59;3.47;;;0.60;;
59950;SDS011;45812;53.540;9.774;2024-01-15T11:37:20;0.70;;;0.68;;
59950;SDS011;45812;53.540;9.774;2024-01-15T11:39:48;0.38;;;0.32;;
59950;SDS011;45812;53.540;9.774;2024-01-15T11:42:16;0.57;;;0.47;;
59950;SDS011;45812;53.540;9.774;2024-01-15T11:44:43;1.02;;;0.60;;
59950;SDS011;45812;53.540;9.774;2024-01-15T11:47:10;3.22;;;0.70;;
59950;SDS011;45812;53.540;9.774;2024-01-15T11:52:24;1.08;;;0.55;;
59950;SDS011;45812;53.540;9.774;2024-01-15T11:57:40;3.72;;;1.05;;
59950;SDS011;45812;53.540;9.774;2024-01-15T12:00:10;2.95;;;0.32;;
59950;SDS011;45812;53.540;9.774;2024-01-15T12:02:40;0.57;;;0.50;;
59950;SDS011;45812;53.540;9.774;2024-01-15T12:05:09;2.08;;;0.52;;
59950;SDS011;45812;53.540;9.774;2024-01-15T12:07:48;0.60;;;0.32;;
59950;SDS011;45812;53.540;9.774;2024-01-15T12:10:15;1.67;;;0.40;;
59950;SDS011;45812;53.540;9.774;2024-01-15T12:15:24;0.20;;;0.13;;
59950;SDS011;45812;53.540;9.774;2024-01-15T12:17:51;0.47;;;0.47;;
59950;SDS011;45812;53.540;9.774;2024-01-15T12:20:17;0.20;;;0.13;;
59950;SDS011;45812;53.540;9.774;2024-01-15T12:22:43;2.45;;;0.40;;
59950;SDS011;45812;53.540;9.774;2024-01-15T12:25:08;0.28;;;0.20;;
59950;SDS011;45812;53.540;9.774;2024-01-15T12:27:34;0.20;;;0.20;;
59950;SDS011;45812;53.540;9.774;2024-01-15T12:29:59;2.90;;;0.43;;
59950;SDS011;45812;53.540;9.774;2024-01-15T12:32:24;0.25;;;0.25;;
59950;SDS011;45812;53.540;9.774;2024-01-15T12:34:50;0.25;;;0.20;;
59950;SDS011;45812;53.540;9.774;2024-01-15T12:37:18;0.85;;;0.30;;
59950;SDS011;45812;53.540;9.774;2024-01-15T12:39:47;2.60;;;0.40;;
59950;SDS011;45812;53.540;9.774;2024-01-15T12:42:14;0.55;;;0.40;;
59950;SDS011;45812;53.540;9.774;2024-01-15T12:44:39;1.33;;;0.65;;
59950;SDS011;45812;53.540;9.774;2024-01-15T12:47:04;0.45;;;0.45;;
59950;SDS011;45812;53.540;9.774;2024-01-15T12:49:30;0.65;;;0.45;;
59950;SDS011;45812;53.540;9.774;2024-01-15T12:51:57;0.25;;;0.20;;
59950;SDS011;45812;53.540;9.774;2024-01-15T12:54:23;0.35;;;0.30;;
59950;SDS011;45812;53.540;9.774;2024-01-15T12:56:49;0.35;;;0.30;;
59950;SDS011;45812;53.540;9.774;2024-01-15T12:59:14;0.35;;;0.35;;
59950;SDS011;45812;53.540;9.774;2024-01-15T13:01:39;0.20;;;0.20;;
59950;SDS011;45812;53.540;9.774;2024-01-15T13:04:06;0.47;;;0.45;;
59950;SDS011;45812;53.540;9.774;2024-01-15T13:06:33;0.30;;;0.30;;
59950;SDS011;45812;53.540;9.774;2024-01-15T13:09:02;0.70;;;0.57;;
59950;SDS011;45812;53.540;9.774;2024-01-15T13:11:30;0.93;;;0.30;;
59950;SDS011;45812;53.540;9.774;2024-01-15T13:13:56;0.13;;;0.13;;
59950;SDS011;45812;53.540;9.774;2024-01-15T13:16:22;1.33;;;0.63;;
59950;SDS011;45812;53.540;9.774;2024-01-15T13:18:47;0.13;;;0.13;;
59950;SDS011;45812;53.540;9.774;2024-01-15T13:21:14;1.08;;;0.50;;
59950;SDS011;45812;53.540;9.774;2024-01-15T13:23:40;0.60;;;0.60;;
59950;SDS011;45812;53.540;9.774;2024-01-15T13:26:05;0.30;;;0.30;;
59950;SDS011;45812;53.540;9.774;2024-01-15T13:28:30;1.65;;;0.43;;
59950;SDS011;45812;53.540;9.774;2024-01-15T13:30:55;0.57;;;0.40;;
59950;SDS011;45812;53.540;9.774;2024-01-15T13:33:21;1.20;;;0.40;;
59950;SDS011;45812;53.540;9.774;2024-01-15T13:35:46;0.88;;;0.40;;
59950;SDS011;45812;53.540;9.774;2024-01-15T13:38:14;0.20;;;0.20;;
59950;SDS011;45812;53.540;9.774;2024-01-15T13:40:39;0.20;;;0.20;;
59950;SDS011;45812;53.540;9.774;2024-01-15T13:43:05;0.30;;;0.30;;
59950;SDS011;45812;53.540;9.774;2024-01-15T13:45:33;0.45;;;0.45;;
59950;SDS011;45812;53.540;9.774;2024-01-15T13:47:59;0.32;;;0.32;;
59950;SDS011;45812;53.540;9.774;2024-01-15T13:50:24;0.50;;;0.50;;
59950;SDS011;45812;53.540;9.774;2024-01-15T13:52:49;1.05;;;0.70;;
59950;SDS011;45812;53.540;9.774;2024-01-15T13:55:15;1.02;;;0.55;;
59950;SDS011;45812;53.540;9.774;2024-01-15T13:57:40;0.45;;;0.45;;
59950;SDS011;45812;53.540;9.774;2024-01-15T14:00:05;0.73;;;0.28;;
59950;SDS011;45812;53.540;9.774;2024-01-15T14:02:36;0.63;;;0.40;;
59950;SDS011;45812;53.540;9.774;2024-01-15T14:05:01;0.47;;;0.38;;
59950;SDS011;45812;53.540;9.774;2024-01-15T14:07:27;1.98;;;0.52;;
59950;SDS011;45812;53.540;9.774;2024-01-15T14:09:52;0.35;;;0.35;;
59950;SDS011;45812;53.540;9.774;2024-01-15T14:12:17;1.02;;;0.70;;
59950;SDS011;45812;53.540;9.774;2024-01-15T14:14:42;0.77;;;0.77;;
59950;SDS011;45812;53.540;9.774;2024-01-15T14:17:08;1.08;;;0.95;;
59950;SDS011;45812;53.540;9.774;2024-01-15T14:19:33;0.75;;;0.75;;
59950;SDS011;45812;53.540;9.774;2024-01-15T14:21:58;3.67;;;1.05;;
59950;SDS011;45812;53.540;9.774;2024-01-15T14:24:24;0.90;;;0.73;;
59950;SDS011;45812;53.540;9.774;2024-01-15T14:26:49;2.22;;;1.15;;
59950;SDS011;45812;53.540;9.774;2024-01-15T14:29:14;3.55;;;0.80;;
59950;SDS011;45812;53.540;9.774;2024-01-15T14:31:39;3.85;;;1.17;;
59950;SDS011;45812;53.540;9.774;2024-01-15T14:34:05;1.85;;;1.23;;
59950;SDS011;45812;53.540;9.774;2024-01-15T14:36:32;1.38;;;1.25;;
59950;SDS011;45812;53.540;9.774;2024-01-15T14:38:57;1.50;;;0.93;;
59950;SDS011;45812;53.540;9.774;2024-01-15T14:41:23;1.65;;;1.33;;
59950;SDS011;45812;53.540;9.774;2024-01-15T14:43:48;3.45;;;1.52;;
59950;SDS011;45812;53.540;9.774;2024-01-15T14:46:13;3.47;;;1.50;;
59950;SDS011;45812;53.540;9.774;2024-01-15T14:48:38;1.00;;;0.90;;
59950;SDS011;45812;53.540;9.774;2024-01-15T14:51:05;1.95;;;0.93;;